Time;durP1;ratioP1;P1;durP2;ratioP2;P2;SDS_P1;SDS_P2;PMS_P1;PMS_P2;Temp;Humidity;BMP_temperature;BMP_pressure;BME280_temperature;BME280_humidity;BME280_pressure;Samples;Min_cycle;Max_cycle;Signal;HPM_P1;HPM_P2
2021/08/29 00:02:08;;;;;;;4.30;3.90;;;11.80;99.90;;;;;;5071010;28;20461;-68
2021/08/29 00:04:35;;;;;;;9.30;4.57;;;11.80;99.90;;;;;;5073807;28;20462;-69
2021/08/29 00:07:02;;;;;;;7.77;4.10;;;11.80;99.90;;;;;;5073847;28;20484;-68
2021/08/29 00:09:28;;;;;;;4.15;3.50;;;11.80;99.90;;;;;;5073024;28;21186;-68
2021/08/29 00:11:55;;;;;;;3.43;3.13;;;11.80;99.90;;;;;;5073966;28;20228;-68
2021/08/29 00:14:22;;;;;;;4.93;3.67;;;11.80;99.90;;;;;;5073508;28;21055;-68
2021/08/29 00:16:48;;;;;;;4.93;4.28;;;11.80;99.90;;;;;;5073893;28;20482;-68
2021/08/29 00:19:16;;;;;;;4.70;4.20;;;11.90;99.90;;;;;;5073232;28;20200;-68
2021/08/29 00:21:43;;;;;;;4.70;4.20;;;11.90;99.90;;;;;;5073395;28;20489;-68
2021/08/29 00:24:10;;;;;;;4.43;3.80;;;11.90;99.90;;;;;;5073561;28;20469;-68
2021/08/29 00:26:36;;;;;;;4.27;3.83;;;11.90;99.90;;;;;;5073243;28;21016;-68
2021/08/29 00:29:04;;;;;;;4.83;4.00;;;12.00;99.90;;;;;;5073003;28;20478;-68
2021/08/29 00:31:30;;;;;;;4.28;3.60;;;12.00;99.90;;;;;;5073243;28;21003;-69
2021/08/29 00:33:57;;;;;;;3.50;2.97;;;12.00;99.90;;;;;;5072639;28;20679;-69
2021/08/29 00:36:25;;;;;;;3.92;3.42;;;12.00;99.90;;;;;;5072982;28;20879;-68
2021/08/29 00:38:52;;;;;;;4.10;3.57;;;12.00;99.90;;;;;;5072646;28;20208;-69
2021/08/29 00:41:19;;;;;;;4.27;3.80;;;12.10;99.90;;;;;;5072872;28;20462;-69
2021/08/29 00:43:46;;;;;;;3.42;3.13;;;12.10;99.90;;;;;;5072874;28;20466;-69
2021/08/29 00:46:12;;;;;;;4.57;3.40;;;12.10;99.90;;;;;;5072850;28;20225;-69
2021/08/29 00:48:43;;;;;;;4.30;3.90;;;12.10;99.90;;;;;;5072135;28;20494;-69
2021/08/29 00:51:10;;;;;;;4.25;3.50;;;12.10;99.90;;;;;;5072952;28;20465;-68
2021/08/29 00:53:38;;;;;;;4.20;3.80;;;12.10;99.90;;;;;;5072720;28;20212;-69
2021/08/29 00:56:05;;;;;;;3.58;3.28;;;12.10;99.90;;;;;;5072744;28;20238;-69
2021/08/29 00:58:32;;;;;;;4.70;3.93;;;12.20;99.90;;;;;;5071767;28;20579;-69
2021/08/29 01:00:59;;;;;;;5.43;4.20;;;12.20;99.90;;;;;;5072684;28;20882;-69
2021/08/29 01:03:28;;;;;;;6.30;3.83;;;12.20;99.90;;;;;;5072387;28;20467;-69
2021/08/29 01:06:03;;;;;;;3.83;3.50;;;12.20;99.90;;;;;;5072426;28;20470;-69
2021/08/29 01:08:38;;;;;;;5.07;3.47;;;12.20;99.90;;;;;;5071695;28;20462;-69
2021/08/29 01:11:10;;;;;;;4.20;3.80;;;12.20;99.90;;;;;;5072217;28;20207;-69
2021/08/29 01:13:44;;;;;;;4.10;3.40;;;12.20;99.90;;;;;;5072133;28;20941;-69
2021/08/29 01:16:12;;;;;;;3.80;3.47;;;12.20;99.90;;;;;;5072229;28;20985;-69
2021/08/29 01:18:41;;;;;;;3.78;3.40;;;12.20;99.90;;;;;;5071800;28;20473;-69
2021/08/29 01:21:12;;;;;;;4.00;3.60;;;12.20;99.90;;;;;;5072152;28;20204;-69
2021/08/29 01:23:41;;;;;;;6.20;3.97;;;12.20;99.90;;;;;;5072119;28;20994;-69
2021/08/29 01:26:19;;;;;;;6.50;3.80;;;12.20;99.90;;;;;;5072254;28;20515;-69
2021/08/29 01:28:56;;;;;;;4.17;3.77;;;12.20;99.90;;;;;;5071016;28;20212;-69
2021/08/29 01:31:25;;;;;;;4.53;4.05;;;12.20;99.90;;;;;;5070710;28;20458;-69
2021/08/29 01:33:53;;;;;;;4.37;3.97;;;12.20;99.90;;;;;;5070256;28;20211;-69
2021/08/29 01:36:21;;;;;;;5.23;3.40;;;12.20;99.90;;;;;;5071148;28;20851;-69
2021/08/29 01:38:48;;;;;;;4.27;3.87;;;12.20;99.90;;;;;;5071791;28;20457;-69
2021/08/29 01:41:18;;;;;;;3.92;3.30;;;12.20;99.90;;;;;;5071985;28;20462;-69
2021/08/29 01:43:45;;;;;;;3.83;3.17;;;12.20;99.90;;;;;;5072025;28;20235;-69
2021/08/29 01:46:14;;;;;;;5.18;4.07;;;12.20;99.90;;;;;;5071914;28;20482;-69
2021/08/29 01:48:42;;;;;;;5.33;3.30;;;12.20;99.90;;;;;;5071167;28;20197;-68
2021/08/29 01:51:09;;;;;;;4.20;3.80;;;12.20;99.90;;;;;;5071976;28;20458;-69
2021/08/29 01:53:37;;;;;;;3.90;3.40;;;12.20;99.90;;;;;;5071596;28;20466;-69
2021/08/29 01:56:05;;;;;;;4.40;4.00;;;12.20;99.90;;;;;;5071757;28;20204;-69
2021/08/29 01:58:31;;;;;;;4.15;3.72;;;12.20;99.90;;;;;;5070950;28;20817;-69
2021/08/29 02:01:01;;;;;;;5.97;3.60;;;12.20;99.90;;;;;;5071788;28;20204;-68
2021/08/29 02:03:30;;;;;;;5.60;4.40;;;12.20;99.90;;;;;;5071433;28;20461;-68
2021/08/29 02:06:04;;;;;;;6.03;4.20;;;12.20;99.90;;;;;;5071530;28;20465;-68
2021/08/29 02:08:31;;;;;;;4.27;3.50;;;12.20;99.90;;;;;;5070944;28;20494;-69
2021/08/29 02:11:01;;;;;;;4.90;3.80;;;12.20;99.90;;;;;;5071432;28;20482;-68
2021/08/29 02:13:29;;;;;;;5.50;4.00;;;12.20;99.90;;;;;;5071302;28;20207;-69
2021/08/29 02:16:01;;;;;;;3.97;3.57;;;12.20;99.90;;;;;;5071313;28;20909;-69
2021/08/29 02:18:33;;;;;;;5.10;3.77;;;12.20;99.90;;;;;;5070774;28;20465;-68
2021/08/29 02:21:00;;;;;;;4.25;3.85;;;12.20;99.90;;;;;;5071491;28;20462;-69
2021/08/29 02:23:29;;;;;;;4.73;3.63;;;12.20;99.90;;;;;;5071269;28;20207;-69
2021/08/29 02:25:56;;;;;;;5.30;4.03;;;12.20;99.90;;;;;;5070657;28;20458;-69
2021/08/29 02:28:24;;;;;;;3.97;3.40;;;12.10;99.90;;;;;;5070525;28;20954;-68
2021/08/29 02:30:51;;;;;;;5.17;4.23;;;12.10;99.90;;;;;;5071299;28;20490;-69
2021/08/29 02:33:19;;;;;;;5.17;3.30;;;12.10;99.90;;;;;;5070885;28;20841;-69
2021/08/29 02:35:47;;;;;;;4.05;3.60;;;12.10;99.90;;;;;;5071125;28;20537;-69
2021/08/29 02:38:14;;;;;;;4.10;3.63;;;12.20;99.90;;;;;;5070427;28;20298;-68
2021/08/29 02:40:43;;;;;;;4.38;3.95;;;12.20;99.90;;;;;;5071086;28;20462;-69
2021/08/29 02:43:10;;;;;;;4.83;4.00;;;12.20;99.90;;;;;;5071015;28;20228;-69
2021/08/29 02:45:38;;;;;;;4.40;3.83;;;12.20;99.90;;;;;;5070905;28;20466;-68
2021/08/29 02:48:06;;;;;;;5.60;4.10;;;12.10;99.90;;;;;;5070224;28;20478;-69
2021/08/29 02:50:33;;;;;;;4.07;3.57;;;12.10;99.90;;;;;;5070697;28;20493;-68
2021/08/29 02:53:02;;;;;;;4.28;3.88;;;12.10;99.90;;;;;;5070876;28;20469;-69
2021/08/29 02:55:29;;;;;;;5.03;3.60;;;12.10;99.90;;;;;;5070662;28;20213;-69
2021/08/29 02:58:02;;;;;;;5.77;4.27;;;12.10;99.90;;;;;;5070163;28;20497;-69
2021/08/29 03:00:29;;;;;;;4.43;3.80;;;12.10;99.90;;;;;;5070562;28;21011;-69
2021/08/29 03:02:56;;;;;;;4.53;4.07;;;12.10;99.90;;;;;;5070831;28;20831;-68
2021/08/29 03:05:23;;;;;;;4.40;4.00;;;12.10;99.90;;;;;;5070507;28;20228;-69
2021/08/29 03:07:50;;;;;;;4.97;3.90;;;12.10;99.90;;;;;;5070145;28;20224;-69
2021/08/29 03:10:19;;;;;;;5.53;3.80;;;12.10;99.90;;;;;;5070487;28;20224;-69
2021/08/29 03:12:46;;;;;;;8.98;4.25;;;12.10;99.90;;;;;;5070637;28;20486;-69
2021/08/29 03:15:14;;;;;;;4.37;3.93;;;12.10;99.90;;;;;;5070456;28;20204;-69
2021/08/29 03:17:41;;;;;;;5.60;3.90;;;12.10;99.90;;;;;;5070103;28;20812;-69
2021/08/29 03:20:09;;;;;;;4.73;3.90;;;12.10;99.90;;;;;;5070676;28;20463;-69
2021/08/29 03:22:37;;;;;;;3.80;3.50;;;12.10;99.90;;;;;;5070369;28;20461;-69
2021/08/29 03:25:05;;;;;;;4.73;4.33;;;12.10;99.90;;;;;;5070486;28;20207;-69
2021/08/29 03:27:34;;;;;;;4.30;3.53;;;12.10;99.90;;;;;;5069658;28;20817;-69
2021/08/29 03:30:01;;;;;;;6.40;4.10;;;12.10;99.90;;;;;;5070553;28;20553;-68
2021/08/29 03:32:28;;;;;;;5.13;4.50;;;12.10;99.90;;;;;;5070200;28;20458;-68
2021/08/29 03:35:00;;;;;;;4.50;3.87;;;12.10;99.90;;;;;;5070362;28;20458;-68
2021/08/29 03:37:27;;;;;;;4.00;3.67;;;12.10;99.90;;;;;;5071031;28;20510;-68
2021/08/29 03:39:54;;;;;;;4.90;4.40;;;12.10;99.90;;;;;;5074531;28;20462;-68
2021/08/29 03:42:21;;;;;;;5.13;4.27;;;12.10;99.90;;;;;;5074196;28;20465;-68
2021/08/29 03:44:50;;;;;;;4.70;3.90;;;12.10;99.90;;;;;;5074455;28;20463;-68
2021/08/29 03:47:17;;;;;;;6.13;5.10;;;12.10;99.90;;;;;;5074177;28;20486;-68
2021/08/29 03:49:44;;;;;;;5.78;4.30;;;12.10;99.90;;;;;;5074342;28;20861;-68
2021/08/29 03:52:13;;;;;;;4.33;3.90;;;12.10;99.90;;;;;;5074499;28;20208;-68
2021/08/29 03:54:41;;;;;;;7.57;4.00;;;12.10;99.90;;;;;;5074377;28;20480;-68
2021/08/29 03:57:08;;;;;;;4.70;4.20;;;12.10;99.90;;;;;;5073977;28;20998;-68
2021/08/29 03:59:36;;;;;;;4.63;4.20;;;12.10;99.90;;;;;;5073660;28;20494;-68
2021/08/29 04:02:05;;;;;;;4.90;4.40;;;12.10;99.90;;;;;;5074134;28;20816;-68
2021/08/29 04:04:32;;;;;;;4.70;4.10;;;12.10;99.90;;;;;;5073883;28;20462;-68
2021/08/29 04:07:02;;;;;;;4.00;3.60;;;12.10;99.90;;;;;;5073958;28;20489;-68
2021/08/29 04:09:31;;;;;;;4.40;4.00;;;12.20;99.90;;;;;;5073261;28;20569;-68
2021/08/29 04:11:59;;;;;;;4.50;4.10;;;12.10;99.90;;;;;;5073911;28;20501;-68
2021/08/29 04:14:27;;;;;;;4.47;4.07;;;12.10;99.90;;;;;;5073692;28;20466;-68
2021/08/29 04:16:56;;;;;;;4.73;4.23;;;12.10;99.90;;;;;;5073509;28;21221;-68
2021/08/29 04:19:25;;;;;;;4.00;3.60;;;12.10;99.90;;;;;;5073057;28;20466;-69
2021/08/29 04:21:52;;;;;;;4.88;4.38;;;12.10;99.90;;;;;;5073737;28;20462;-69
2021/08/29 04:24:19;;;;;;;5.17;4.40;;;12.10;99.90;;;;;;5073634;28;20208;-68
2021/08/29 04:26:47;;;;;;;5.50;4.07;;;12.10;99.90;;;;;;5073561;28;20478;-69
2021/08/29 04:29:14;;;;;;;4.30;3.90;;;12.10;99.90;;;;;;5072924;28;20212;-69
2021/08/29 04:31:45;;;;;;;4.33;3.93;;;12.10;99.90;;;;;;5073268;28;20481;-68
2021/08/29 04:34:11;;;;;;;5.07;4.40;;;12.10;99.90;;;;;;5073370;28;20454;-69
2021/08/29 04:36:40;;;;;;;4.68;3.85;;;12.10;99.90;;;;;;5073437;28;20486;-68
2021/08/29 04:39:08;;;;;;;5.40;4.07;;;12.10;99.90;;;;;;5072777;28;20208;-68
2021/08/29 04:41:36;;;;;;;4.72;3.95;;;12.00;99.90;;;;;;5073357;28;20263;-68
2021/08/29 04:44:03;;;;;;;4.87;4.37;;;12.00;99.90;;;;;;5073151;28;20227;-68
2021/08/29 04:46:30;;;;;;;5.43;4.93;;;12.00;99.90;;;;;;5073108;28;20855;-68
2021/08/29 04:48:57;;;;;;;5.25;4.75;;;12.00;99.90;;;;;;5072062;28;20676;-69
2021/08/29 04:51:24;;;;;;;4.82;3.90;;;11.90;99.90;;;;;;5073114;28;20960;-69
2021/08/29 04:53:52;;;;;;;4.95;4.45;;;11.90;99.90;;;;;;5072976;28;20204;-68
2021/08/29 04:56:19;;;;;;;4.78;4.05;;;11.90;99.90;;;;;;5072904;28;20585;-69
2021/08/29 04:58:46;;;;;;;4.40;4.00;;;12.00;99.90;;;;;;5089680;22;20229;-95
2021/08/29 05:01:12;;;;;;;5.10;4.60;;;12.00;99.90;;;;;;5065401;22;20576;-69
2021/08/29 05:03:39;;;;;;;4.82;4.32;;;12.00;99.90;;;;;;5052858;28;20641;-69
2021/08/29 05:06:09;;;;;;;4.73;4.23;;;12.00;99.90;;;;;;5052692;28;20208;-70
2021/08/29 05:08:35;;;;;;;5.65;4.30;;;11.90;99.90;;;;;;5052190;28;20943;-69
2021/08/29 05:11:03;;;;;;;4.87;4.37;;;12.00;99.90;;;;;;5052593;28;20239;-69
2021/08/29 05:13:30;;;;;;;5.10;4.60;;;11.90;99.90;;;;;;5052682;28;20832;-69
2021/08/29 05:15:57;;;;;;;4.60;4.07;;;11.90;99.90;;;;;;5052706;28;20520;-70
2021/08/29 05:18:24;;;;;;;4.10;3.70;;;11.90;99.90;;;;;;5052248;28;20464;-70
2021/08/29 05:20:50;;;;;;;5.25;4.75;;;11.90;99.90;;;;;;5052579;28;20201;-69
2021/08/29 05:23:17;;;;;;;4.60;4.20;;;11.90;99.90;;;;;;5052534;28;20212;-70
2021/08/29 05:25:44;;;;;;;4.10;3.70;;;11.90;99.90;;;;;;5052542;28;20208;-70
2021/08/29 05:28:12;;;;;;;5.40;4.60;;;11.80;99.90;;;;;;5051809;28;20700;-69
2021/08/29 05:30:38;;;;;;;4.60;4.10;;;11.80;99.90;;;;;;5052317;28;20222;-70
2021/08/29 05:33:05;;;;;;;4.80;4.30;;;11.80;99.90;;;;;;5052208;28;20205;-69
2021/08/29 05:35:32;;;;;;;4.77;4.27;;;11.80;99.90;;;;;;5052278;28;20204;-70
2021/08/29 05:37:58;;;;;;;4.43;4.00;;;11.80;99.90;;;;;;5051472;28;20983;-70
2021/08/29 05:40:25;;;;;;;3.95;3.55;;;11.90;99.90;;;;;;5052278;28;20211;-70
2021/08/29 05:42:52;;;;;;;4.57;4.10;;;11.90;99.90;;;;;;5052124;28;20197;-70
2021/08/29 05:45:20;;;;;;;3.87;3.57;;;11.90;99.90;;;;;;5052034;28;21005;-70
2021/08/29 05:47:47;;;;;;;5.95;3.72;;;12.00;99.90;;;;;;5051663;28;20480;-69
2021/08/29 05:50:14;;;;;;;4.43;3.85;;;12.00;99.90;;;;;;5051885;28;20744;-69
2021/08/29 05:52:40;;;;;;;4.20;3.55;;;12.00;99.90;;;;;;5051987;28;20206;-70
2021/08/29 05:55:08;;;;;;;3.90;3.60;;;12.00;99.90;;;;;;5051841;28;20597;-70
2021/08/29 05:57:35;;;;;;;3.53;3.22;;;11.90;99.90;;;;;;5051306;28;20229;-70
2021/08/29 06:00:02;;;;;;;3.10;2.80;;;12.00;99.90;;;;;;5050780;28;20201;-70
2021/08/29 06:02:30;;;;;;;3.20;2.90;;;11.90;99.90;;;;;;5051565;28;20213;-70
2021/08/29 06:04:56;;;;;;;3.25;2.80;;;11.90;99.90;;;;;;5051761;28;20228;-70
2021/08/29 06:07:23;;;;;;;2.90;2.70;;;11.90;99.90;;;;;;5051042;28;20225;-70
2021/08/29 06:09:49;;;;;;;2.95;2.65;;;11.90;99.90;;;;;;5051766;28;20208;-70
2021/08/29 06:12:16;;;;;;;3.42;2.97;;;11.90;99.90;;;;;;5051277;28;20225;-70
2021/08/29 06:14:43;;;;;;;2.75;2.55;;;12.00;99.90;;;;;;5051610;28;20669;-70
2021/08/29 06:17:10;;;;;;;3.43;2.40;;;11.90;99.90;;;;;;5051251;28;20221;-70
2021/08/29 06:19:38;;;;;;;2.53;2.33;;;11.90;99.90;;;;;;5051303;28;20456;-70
2021/08/29 06:22:05;;;;;;;2.80;2.60;;;11.90;99.90;;;;;;5051313;28;20204;-70
2021/08/29 06:24:31;;;;;;;3.83;2.38;;;11.90;99.90;;;;;;5051484;28;20228;-70
2021/08/29 06:26:58;;;;;;;2.55;2.35;;;11.90;99.90;;;;;;5051282;28;20216;-70
2021/08/29 06:29:25;;;;;;;2.55;2.35;;;12.00;99.90;;;;;;5050705;28;20216;-69
2021/08/29 06:31:51;;;;;;;2.40;2.20;;;11.90;99.90;;;;;;5051238;28;20228;-70
2021/08/29 06:34:18;;;;;;;2.45;2.25;;;12.00;99.90;;;;;;5050940;28;20204;-70
2021/08/29 06:36:47;;;;;;;2.40;2.20;;;12.00;99.90;;;;;;5051299;28;20636;-70
2021/08/29 06:39:14;;;;;;;2.50;2.30;;;12.00;99.90;;;;;;5050186;28;20577;-70
2021/08/29 06:41:41;;;;;;;3.55;2.25;;;12.00;99.90;;;;;;5051013;28;20204;-70
2021/08/29 06:44:08;;;;;;;3.20;2.33;;;12.10;99.90;;;;;;5050505;28;20201;-70
2021/08/29 06:46:35;;;;;;;2.45;2.15;;;12.10;99.90;;;;;;5050716;28;20487;-70
2021/08/29 06:49:01;;;;;;;1.90;1.80;;;12.10;99.90;;;;;;5050387;28;20200;-70
2021/08/29 06:51:28;;;;;;;1.80;1.65;;;12.10;99.90;;;;;;5050295;28;20225;-71
2021/08/29 06:53:56;;;;;;;2.10;1.67;;;12.00;99.90;;;;;;5050390;28;20205;-71
2021/08/29 06:56:23;;;;;;;1.80;1.70;;;12.00;99.90;;;;;;5050002;28;20483;-70
2021/08/29 06:58:49;;;;;;;1.83;1.67;;;11.90;99.90;;;;;;5049824;28;20208;-70
2021/08/29 07:01:16;;;;;;;2.92;1.80;;;12.00;99.90;;;;;;5050284;28;20205;-70
2021/08/29 07:03:43;;;;;;;2.35;2.15;;;12.00;99.90;;;;;;5050877;28;20664;-70
2021/08/29 07:06:10;;;;;;;2.38;2.00;;;12.10;99.90;;;;;;5050592;28;20201;-71
2021/08/29 07:08:36;;;;;;;1.53;1.43;;;12.10;99.90;;;;;;5050168;28;20208;-71
2021/08/29 07:11:04;;;;;;;3.15;1.40;;;12.10;99.90;;;;;;5050383;28;20487;-71
2021/08/29 07:13:31;;;;;;;1.70;1.60;;;12.20;99.90;;;;;;5050576;28;20213;-71
2021/08/29 07:15:58;;;;;;;1.77;1.67;;;12.20;99.90;;;;;;5050760;28;20495;-71
2021/08/29 07:18:25;;;;;;;1.67;1.58;;;12.30;99.90;;;;;;5044183;28;20204;-70
2021/08/29 07:20:51;;;;;;;2.20;2.00;;;12.30;99.90;;;;;;5028296;28;20209;-71
2021/08/29 07:23:18;;;;;;;1.97;1.77;;;12.30;99.90;;;;;;5023433;28;20466;-70
2021/08/29 07:25:45;;;;;;;1.50;1.40;;;12.40;99.90;;;;;;5039711;28;20578;-70
2021/08/29 07:28:17;;;;;;;1.60;1.50;;;12.30;99.90;;;;;;5047953;28;20540;-70
2021/08/29 07:30:45;;;;;;;1.70;1.60;;;12.30;99.90;;;;;;5041326;28;20221;-70
2021/08/29 07:33:12;;;;;;;3.00;1.83;;;12.30;99.90;;;;;;5048013;28;20512;-70
2021/08/29 07:35:39;;;;;;;1.67;1.57;;;12.40;99.90;;;;;;5048898;28;20474;-72
2021/08/29 07:38:06;;;;;;;1.70;1.53;;;12.40;99.90;;;;;;5047792;28;20566;-71
2021/08/29 07:40:33;;;;;;;1.70;1.27;;;12.50;99.90;;;;;;5047606;28;20510;-70
2021/08/29 07:43:00;;;;;;;1.40;1.30;;;12.50;99.90;;;;;;5016807;28;20465;-71
2021/08/29 07:45:29;;;;;;;2.90;1.37;;;12.60;99.90;;;;;;5023911;28;20463;-71
2021/08/29 07:47:56;;;;;;;1.70;1.23;;;12.60;99.90;;;;;;5026873;28;20484;-71
2021/08/29 07:50:24;;;;;;;1.30;1.00;;;12.70;99.90;;;;;;5027451;28;20205;-71
2021/08/29 07:52:51;;;;;;;1.63;1.20;;;12.70;99.90;;;;;;5026612;28;20449;-71
2021/08/29 07:55:19;;;;;;;1.27;1.17;;;12.80;99.90;;;;;;5026979;28;20456;-71
2021/08/29 07:57:45;;;;;;;1.27;1.10;;;12.80;99.90;;;;;;5021299;28;20487;-70
2021/08/29 08:00:13;;;;;;;1.43;1.33;;;12.80;99.90;;;;;;5006115;28;20457;-71
2021/08/29 08:02:41;;;;;;;1.20;1.10;;;12.80;99.90;;;;;;5007305;28;20453;-71
2021/08/29 08:05:09;;;;;;;1.40;1.20;;;12.80;99.90;;;;;;5007535;28;20203;-71
2021/08/29 08:07:37;;;;;;;1.43;1.20;;;12.80;99.90;;;;;;5012460;28;20508;-71
2021/08/29 08:10:04;;;;;;;1.10;1.00;;;12.90;99.90;;;;;;5008600;28;21169;-71
2021/08/29 08:12:31;;;;;;;1.30;1.10;;;12.90;99.90;;;;;;5006313;28;22315;-71
2021/08/29 08:14:58;;;;;;;1.73;1.13;;;12.90;99.90;;;;;;5007095;28;20484;-71
2021/08/29 08:17:25;;;;;;;1.40;1.30;;;12.90;99.90;;;;;;5006069;28;20528;-71
2021/08/29 08:19:53;;;;;;;1.37;1.17;;;13.00;99.90;;;;;;5009359;28;20543;-70
2021/08/29 08:22:20;;;;;;;1.10;1.00;;;13.00;99.90;;;;;;5024420;28;20463;-70
2021/08/29 08:24:47;;;;;;;1.17;1.00;;;13.00;99.90;;;;;;5029746;28;20869;-71
2021/08/29 08:27:14;;;;;;;2.13;1.10;;;13.10;99.90;;;;;;5029208;28;20476;-71
2021/08/29 08:29:40;;;;;;;1.27;1.17;;;13.10;99.90;;;;;;5029467;28;20967;-70
2021/08/29 08:32:08;;;;;;;0.90;0.80;;;13.10;99.90;;;;;;5029907;28;20484;-71
2021/08/29 08:34:35;;;;;;;0.90;0.80;;;13.10;99.90;;;;;;5020309;28;20461;-72
2021/08/29 08:37:03;;;;;;;1.50;1.00;;;13.20;99.90;;;;;;5009942;28;20473;-71
2021/08/29 08:39:30;;;;;;;1.50;1.10;;;13.20;99.90;;;;;;5009980;28;20465;-71
2021/08/29 08:41:57;;;;;;;1.00;0.87;;;13.20;99.90;;;;;;5010481;28;20461;-71
2021/08/29 08:44:24;;;;;;;1.30;1.20;;;13.20;99.90;;;;;;5010273;28;20844;-70
2021/08/29 08:46:52;;;;;;;1.60;1.50;;;13.30;99.90;;;;;;5010745;28;20515;-72
2021/08/29 08:49:20;;;;;;;1.50;1.40;;;13.30;99.90;;;;;;5009308;28;20457;-72
2021/08/29 08:51:51;;;;;;;1.70;1.60;;;13.40;99.90;;;;;;5016576;28;20480;-71
2021/08/29 08:54:19;;;;;;;2.00;1.80;;;13.40;99.90;;;;;;5050065;28;20517;-71
2021/08/29 08:56:48;;;;;;;1.93;1.83;;;13.50;99.90;;;;;;5049856;28;20486;-72
2021/08/29 08:59:16;;;;;;;2.10;1.90;;;13.60;99.90;;;;;;5041109;28;20493;-72
2021/08/29 09:01:43;;;;;;;2.30;2.10;;;13.70;99.90;;;;;;5020195;28;20956;-72
2021/08/29 09:04:11;;;;;;;3.10;2.80;;;13.80;99.90;;;;;;5027972;28;20452;-72
2021/08/29 09:06:38;;;;;;;3.23;2.97;;;13.90;99.90;;;;;;5009107;28;20476;-72
2021/08/29 09:09:05;;;;;;;3.10;2.90;;;13.90;99.90;;;;;;5007947;28;20999;-72
2021/08/29 09:11:35;;;;;;;2.87;2.60;;;13.90;99.90;;;;;;5019427;28;20479;-72
2021/08/29 09:14:02;;;;;;;2.80;2.60;;;13.90;99.90;;;;;;5027774;28;20457;-72
2021/08/29 09:16:30;;;;;;;2.80;2.60;;;13.90;99.90;;;;;;5027243;28;20480;-72
2021/08/29 09:19:00;;;;;;;3.30;3.00;;;13.90;99.90;;;;;;5027154;28;20905;-72
2021/08/29 09:21:29;;;;;;;2.90;2.70;;;13.90;99.90;;;;;;5016209;28;20457;-72
2021/08/29 09:23:58;;;;;;;2.73;2.53;;;13.90;99.90;;;;;;5008280;28;21226;-72
2021/08/29 09:26:29;;;;;;;3.33;3.00;;;13.90;99.90;;;;;;5007251;28;20485;-72
2021/08/29 09:28:59;;;;;;;3.30;3.00;;;13.90;99.90;;;;;;5017434;28;20471;-71
2021/08/29 09:31:42;;;;;;;2.97;2.67;;;13.90;99.90;;;;;;5009266;28;20479;-71
2021/08/29 09:34:12;;;;;;;3.30;3.00;;;13.90;99.90;;;;;;5008830;28;20454;-71
2021/08/29 09:36:40;;;;;;;3.70;3.40;;;14.00;99.90;;;;;;5022810;28;20477;-71
2021/08/29 09:39:13;;;;;;;3.97;3.00;;;14.00;99.90;;;;;;5007160;28;20983;-71
2021/08/29 09:41:41;;;;;;;3.87;3.57;;;14.00;99.90;;;;;;5008157;28;20453;-71
2021/08/29 09:44:15;;;;;;;4.03;3.63;;;14.00;99.90;;;;;;5027425;28;20515;-71
2021/08/29 09:46:54;;;;;;;3.50;3.20;;;14.10;99.90;;;;;;5027530;28;20487;-71
2021/08/29 09:49:26;;;;;;;3.50;3.20;;;14.00;99.90;;;;;;5008366;28;20829;-70
2021/08/29 09:51:54;;;;;;;3.70;3.40;;;13.90;99.90;;;;;;5026322;28;20512;-71
2021/08/29 09:54:30;;;;;;;3.50;3.20;;;14.00;99.90;;;;;;5027738;28;20819;-71
2021/08/29 09:56:58;;;;;;;4.03;3.73;;;14.00;99.90;;;;;;5014396;28;20468;-71
2021/08/29 09:59:44;;;;;;;3.73;3.43;;;14.10;99.90;;;;;;5006924;28;20453;-72
2021/08/29 10:02:21;;;;;;;3.70;3.40;;;14.10;99.90;;;;;;5024824;28;20456;-71
2021/08/29 10:04:49;;;;;;;4.00;3.70;;;14.10;99.90;;;;;;5026311;28;20460;-71
2021/08/29 10:07:17;;;;;;;4.70;4.27;;;14.10;99.90;;;;;;5028257;28;20488;-70
2021/08/29 10:09:46;;;;;;;4.63;4.20;;;14.10;99.90;;;;;;5029328;28;20473;-71
2021/08/29 10:12:14;;;;;;;4.70;4.30;;;14.00;99.90;;;;;;5028179;28;20515;-71
2021/08/29 10:14:44;;;;;;;4.10;3.70;;;14.10;99.90;;;;;;5029967;28;20461;-71
2021/08/29 10:17:12;;;;;;;3.93;3.63;;;14.10;99.90;;;;;;5029202;28;20484;-70
2021/08/29 10:19:40;;;;;;;4.50;4.10;;;14.20;99.90;;;;;;5029016;28;20463;-71
2021/08/29 10:22:09;;;;;;;4.30;3.90;;;14.30;99.90;;;;;;5029462;28;20477;-71
2021/08/29 10:24:36;;;;;;;3.80;3.50;;;14.40;99.90;;;;;;5028984;28;20468;-70
2021/08/29 10:27:07;;;;;;;4.67;4.27;;;14.40;99.90;;;;;;5029392;28;20480;-70
2021/08/29 10:29:40;;;;;;;4.80;4.40;;;14.40;99.90;;;;;;5028740;28;20468;-71
2021/08/29 10:32:19;;;;;;;4.83;4.43;;;14.50;99.90;;;;;;5028577;28;20480;-71
2021/08/29 10:34:49;;;;;;;4.23;3.93;;;14.50;99.90;;;;;;5029254;28;20468;-70
2021/08/29 10:37:16;;;;;;;4.60;4.20;;;14.50;99.90;;;;;;5044752;28;20541;-70
2021/08/29 10:39:44;;;;;;;4.60;4.20;;;14.50;99.90;;;;;;5048651;28;20487;-71
2021/08/29 10:42:16;;;;;;;5.80;4.13;;;14.50;99.90;;;;;;5049359;28;20460;-71
2021/08/29 10:44:43;;;;;;;4.60;4.20;;;14.50;99.90;;;;;;5049271;28;20463;-70
2021/08/29 10:47:11;;;;;;;4.60;4.20;;;14.50;99.90;;;;;;5048363;28;20487;-69
2021/08/29 10:49:41;;;;;;;5.53;4.20;;;14.50;99.90;;;;;;5048980;28;20559;-71
2021/08/29 10:52:09;;;;;;;3.90;3.60;;;14.50;99.90;;;;;;5049195;28;20479;-70
2021/08/29 10:54:50;;;;;;;4.20;3.90;;;14.40;99.90;;;;;;5048728;28;20477;-71
2021/08/29 10:57:35;;;;;;;3.40;3.20;;;14.40;99.90;;;;;;5048322;28;20649;-69
2021/08/29 11:00:04;;;;;;;3.50;3.20;;;14.50;99.90;;;;;;5048863;28;20455;-71
2021/08/29 11:02:37;;;;;;;3.80;3.50;;;14.60;99.90;;;;;;5110079;22;20800;-67
2021/08/29 11:05:06;;;;;;;4.13;3.80;;;14.70;99.90;;;;;;5073369;28;20466;-67
2021/08/29 11:07:48;;;;;;;3.63;3.37;;;14.70;99.90;;;;;;5067978;28;20481;-67
2021/08/29 11:10:42;;;;;;;4.50;3.83;;;14.70;99.90;;;;;;5068391;28;20508;-67
2021/08/29 11:13:39;;;;;;;3.50;3.20;;;14.80;99.90;;;;;;5068903;28;20577;-67
2021/08/29 11:16:19;;;;;;;3.43;3.17;;;14.70;99.90;;;;;;5022636;28;20462;-67
2021/08/29 11:19:23;;;;;;;3.57;3.10;;;14.80;99.90;;;;;;5068113;28;21252;-67
2021/08/29 11:22:17;;;;;;;5.40;3.37;;;14.80;99.90;;;;;;5068472;28;20932;-67
2021/08/29 11:25:11;;;;;;;4.00;3.70;;;14.80;99.90;;;;;;5052022;28;20452;-67
2021/08/29 11:27:49;;;;;;;4.03;3.63;;;14.70;99.90;;;;;;5045295;28;20880;-67
2021/08/29 11:30:19;;;;;;;3.57;3.27;;;14.70;99.90;;;;;;5048157;28;20971;-67
2021/08/29 11:32:51;;;;;;;5.23;3.30;;;14.60;99.90;;;;;;5047920;28;20487;-67
2021/08/29 11:35:24;;;;;;;3.83;3.53;;;14.60;99.90;;;;;;5048724;28;20537;-67
2021/08/29 11:38:04;;;;;;;3.57;3.37;;;14.60;99.90;;;;;;5047305;28;20484;-67
2021/08/29 11:41:12;;;;;;;3.30;3.00;;;14.60;99.90;;;;;;5048236;28;20459;-68
2021/08/29 11:43:41;;;;;;;4.10;3.80;;;14.60;99.90;;;;;;5047819;28;20486;-68
2021/08/29 11:46:14;;;;;;;3.90;3.60;;;14.60;99.90;;;;;;5048228;28;20447;-68
2021/08/29 11:48:53;;;;;;;4.00;3.70;;;14.70;99.90;;;;;;5041615;28;20455;-68
2021/08/29 11:51:29;;;;;;;3.97;3.67;;;14.80;99.90;;;;;;5027176;28;20904;-68
2021/08/29 11:53:58;;;;;;;4.00;3.70;;;14.90;99.90;;;;;;5026395;28;20549;-68
2021/08/29 11:56:28;;;;;;;3.60;3.30;;;14.90;99.90;;;;;;5026318;28;20530;-68
2021/08/29 11:58:56;;;;;;;3.90;3.60;;;14.80;99.90;;;;;;5031631;28;20463;-68
2021/08/29 12:01:24;;;;;;;3.57;3.27;;;14.80;99.90;;;;;;5041491;28;20462;-68
2021/08/29 12:03:55;;;;;;;3.30;3.10;;;14.70;99.90;;;;;;5040728;28;20538;-68
2021/08/29 12:06:33;;;;;;;3.93;3.50;;;14.70;99.90;;;;;;5039928;28;20998;-68
2021/08/29 12:09:21;;;;;;;2.97;2.77;;;14.60;99.90;;;;;;5040360;28;20507;-68
2021/08/29 12:11:51;;;;;;;3.10;2.90;;;14.50;99.90;;;;;;5039222;28;20464;-67
2021/08/29 12:14:20;;;;;;;3.73;3.43;;;14.50;99.90;;;;;;5040607;28;20538;-68
2021/08/29 12:16:50;;;;;;;3.60;3.30;;;14.60;99.90;;;;;;5038802;28;20491;-68
2021/08/29 12:19:19;;;;;;;4.97;4.60;;;14.60;99.90;;;;;;5038645;28;20549;-68
2021/08/29 12:21:47;;;;;;;4.43;3.77;;;14.70;99.90;;;;;;5032401;28;20476;-68
2021/08/29 12:24:22;;;;;;;3.30;3.10;;;14.70;99.90;;;;;;5030023;28;20506;-68
2021/08/29 12:26:59;;;;;;;3.87;3.20;;;14.70;99.90;;;;;;5030117;28;20889;-68
2021/08/29 12:29:26;;;;;;;3.50;3.20;;;14.70;99.90;;;;;;5029087;28;20543;-68
2021/08/29 12:31:53;;;;;;;5.50;3.30;;;14.70;99.90;;;;;;5047263;28;20466;-68
2021/08/29 12:34:26;;;;;;;3.57;3.27;;;14.70;99.90;;;;;;5038829;28;20821;-68
2021/08/29 12:37:02;;;;;;;3.50;3.20;;;14.70;99.90;;;;;;5049023;28;20483;-68
2021/08/29 12:39:30;;;;;;;3.47;3.17;;;14.80;99.90;;;;;;5048704;28;20455;-68
2021/08/29 12:42:14;;;;;;;3.10;2.90;;;14.70;99.90;;;;;;5049225;28;20470;-68
2021/08/29 12:44:41;;;;;;;3.43;3.13;;;14.70;99.90;;;;;;5037213;28;20460;-67
2021/08/29 12:47:07;;;;;;;6.10;3.20;;;14.70;99.90;;;;;;5029584;28;20480;-68
2021/08/29 12:49:35;;;;;;;3.90;3.60;;;14.70;99.90;;;;;;5034932;28;20509;-68
2021/08/29 12:52:02;;;;;;;3.30;3.00;;;14.70;99.90;;;;;;5034434;28;20471;-68
2021/08/29 12:54:33;;;;;;;3.50;3.20;;;14.60;99.90;;;;;;5048821;28;20463;-67
2021/08/29 12:57:00;;;;;;;3.50;3.20;;;14.60;99.90;;;;;;5048564;28;20479;-68
2021/08/29 12:59:27;;;;;;;3.37;3.03;;;14.50;99.90;;;;;;5029920;28;20836;-68